sensor_id;sensor_type;location;lat;lon;timestamp;P1;durP1;ratioP1;P2;durP2;ratioP2
1811;SDS011;904;47.814;11.134;2023-08-01T00:00:27;5.97;;;2.50;;
1811;SDS011;904;47.814;11.134;2023-08-01T00:02:54;3.37;;;2.03;;
1811;SDS011;904;47.814;11.134;2023-08-01T00:05:24;5.47;;;2.47;;
1811;SDS011;904;47.814;11.134;2023-08-01T00:07:52;5.50;;;3.23;;
1811;SDS011;904;47.814;11.134;2023-08-01T00:10:28;4.40;;;2.70;;
1811;SDS011;904;47.814;11.134;2023-08-01T00:12:58;5.80;;;3.00;;
1811;SDS011;904;47.814;11.134;2023-08-01T00:15:25;3.93;;;2.33;;
1811;SDS011;904;47.814;11.134;2023-08-01T00:17:53;6.60;;;3.03;;
1811;SDS011;904;47.814;11.134;2023-08-01T00:20:20;3.67;;;2.30;;
1811;SDS011;904;47.814;11.134;2023-08-01T00:22:49;3.80;;;2.60;;
1811;SDS011;904;47.814;11.134;2023-08-01T00:25:16;4.47;;;2.43;;
1811;SDS011;904;47.814;11.134;2023-08-01T00:27:49;4.40;;;2.37;;
1811;SDS011;904;47.814;11.134;2023-08-01T00:30:16;5.73;;;2.70;;
1811;SDS011;904;47.814;11.134;2023-08-01T00:32:43;4.63;;;2.37;;
1811;SDS011;904;47.814;11.134;2023-08-01T00:35:10;3.87;;;2.43;;
1811;SDS011;904;47.814;11.134;2023-08-01T00:37:37;7.20;;;2.70;;
1811;SDS011;904;47.814;11.134;2023-08-01T00:40:07;5.33;;;2.50;;
1811;SDS011;904;47.814;11.134;2023-08-01T00:42:35;3.70;;;2.53;;
1811;SDS011;904;47.814;11.134;2023-08-01T00:45:03;6.67;;;2.83;;
1811;SDS011;904;47.814;11.134;2023-08-01T00:47:35;9.50;;;3.10;;
1811;SDS011;904;47.814;11.134;2023-08-01T00:50:02;4.57;;;3.00;;
1811;SDS011;904;47.814;11.134;2023-08-01T00:52:30;4.50;;;2.70;;
1811;SDS011;904;47.814;11.134;2023-08-01T00:54:57;3.80;;;2.33;;
1811;SDS011;904;47.814;11.134;2023-08-01T00:57:25;3.13;;;2.10;;
1811;SDS011;904;47.814;11.134;2023-08-01T00:59:52;3.77;;;2.57;;
1811;SDS011;904;47.814;11.134;2023-08-01T01:02:20;7.90;;;2.90;;
1811;SDS011;904;47.814;11.134;2023-08-01T01:04:49;5.20;;;3.00;;
1811;SDS011;904;47.814;11.134;2023-08-01T01:07:18;4.87;;;2.63;;
1811;SDS011;904;47.814;11.134;2023-08-01T01:09:48;5.33;;;2.90;;
1811;SDS011;904;47.814;11.134;2023-08-01T01:12:16;6.80;;;2.53;;
1811;SDS011;904;47.814;11.134;2023-08-01T01:14:44;3.70;;;2.30;;
1811;SDS011;904;47.814;11.134;2023-08-01T01:17:11;4.53;;;2.87;;
1811;SDS011;904;47.814;11.134;2023-08-01T01:19:44;6.97;;;2.40;;
1811;SDS011;904;47.814;11.134;2023-08-01T01:22:12;5.27;;;2.63;;
1811;SDS011;904;47.814;11.134;2023-08-01T01:24:39;5.03;;;2.80;;
1811;SDS011;904;47.814;11.134;2023-08-01T01:27:10;5.00;;;2.80;;
1811;SDS011;904;47.814;11.134;2023-08-01T01:29:38;5.33;;;2.80;;
1811;SDS011;904;47.814;11.134;2023-08-01T01:32:09;4.10;;;2.80;;
1811;SDS011;904;47.814;11.134;2023-08-01T01:34:36;4.97;;;3.30;;
1811;SDS011;904;47.814;11.134;2023-08-01T01:37:03;4.50;;;2.23;;
1811;SDS011;904;47.814;11.134;2023-08-01T01:39:32;3.83;;;2.70;;
1811;SDS011;904;47.814;11.134;2023-08-01T01:41:59;8.70;;;2.90;;
1811;SDS011;904;47.814;11.134;2023-08-01T01:44:26;6.90;;;2.70;;
1811;SDS011;904;47.814;11.134;2023-08-01T01:46:55;5.53;;;2.87;;
1811;SDS011;904;47.814;11.134;2023-08-01T01:49:22;4.17;;;2.93;;
1811;SDS011;904;47.814;11.134;2023-08-01T01:51:51;4.40;;;2.70;;
1811;SDS011;904;47.814;11.134;2023-08-01T01:54:20;4.33;;;2.87;;
1811;SDS011;904;47.814;11.134;2023-08-01T01:56:48;5.47;;;2.60;;
1811;SDS011;904;47.814;11.134;2023-08-01T01:59:15;5.97;;;2.20;;
1811;SDS011;904;47.814;11.134;2023-08-01T02:01:45;4.50;;;2.50;;
1811;SDS011;904;47.814;11.134;2023-08-01T02:04:12;3.57;;;2.27;;
1811;SDS011;904;47.814;11.134;2023-08-01T02:06:47;4.93;;;2.10;;
1811;SDS011;904;47.814;11.134;2023-08-01T02:09:14;4.07;;;2.50;;
1811;SDS011;904;47.814;11.134;2023-08-01T02:11:41;5.07;;;2.70;;
1811;SDS011;904;47.814;11.134;2023-08-01T02:14:11;4.97;;;2.70;;
1811;SDS011;904;47.814;11.134;2023-08-01T02:16:39;4.63;;;2.73;;
1811;SDS011;904;47.814;11.134;2023-08-01T02:19:06;3.80;;;2.20;;
1811;SDS011;904;47.814;11.134;2023-08-01T02:21:33;3.63;;;2.53;;
1811;SDS011;904;47.814;11.134;2023-08-01T02:24:00;4.80;;;2.80;;
1811;SDS011;904;47.814;11.134;2023-08-01T02:26:30;6.23;;;2.50;;
1811;SDS011;904;47.814;11.134;2023-08-01T02:28:57;4.07;;;2.17;;
1811;SDS011;904;47.814;11.134;2023-08-01T02:31:25;5.03;;;2.80;;
1811;SDS011;904;47.814;11.134;2023-08-01T02:33:54;5.47;;;3.37;;
1811;SDS011;904;47.814;11.134;2023-08-01T02:36:21;5.90;;;3.00;;
1811;SDS011;904;47.814;11.134;2023-08-01T02:38:48;3.80;;;2.23;;
1811;SDS011;904;47.814;11.134;2023-08-01T02:41:20;4.67;;;3.13;;
1811;SDS011;904;47.814;11.134;2023-08-01T02:43:47;4.57;;;3.10;;
1811;SDS011;904;47.814;11.134;2023-08-01T02:46:19;4.50;;;2.37;;
1811;SDS011;904;47.814;11.134;2023-08-01T02:48:48;3.83;;;2.73;;
1811;SDS011;904;47.814;11.134;2023-08-01T02:51:15;4.73;;;2.63;;
1811;SDS011;904;47.814;11.134;2023-08-01T02:53:42;5.50;;;3.27;;
1811;SDS011;904;47.814;11.134;2023-08-01T02:56:15;4.50;;;2.60;;
1811;SDS011;904;47.814;11.134;2023-08-01T02:58:43;5.40;;;3.00;;
1811;SDS011;904;47.814;11.134;2023-08-01T03:01:12;3.63;;;2.30;;
1811;SDS011;904;47.814;11.134;2023-08-01T03:03:39;4.47;;;2.63;;
1811;SDS011;904;47.814;11.134;2023-08-01T03:06:08;5.50;;;2.97;;
1811;SDS011;904;47.814;11.134;2023-08-01T03:08:35;4.30;;;2.87;;
1811;SDS011;904;47.814;11.134;2023-08-01T03:11:04;3.90;;;2.47;;
1811;SDS011;904;47.814;11.134;2023-08-01T03:13:31;3.80;;;2.57;;
1811;SDS011;904;47.814;11.134;2023-08-01T03:15:58;4.57;;;2.80;;
1811;SDS011;904;47.814;11.134;2023-08-01T03:18:25;4.13;;;2.50;;
1811;SDS011;904;47.814;11.134;2023-08-01T03:20:52;4.90;;;2.77;;
1811;SDS011;904;47.814;11.134;2023-08-01T03:23:21;6.80;;;3.20;;
1811;SDS011;904;47.814;11.134;2023-08-01T03:25:48;4.33;;;2.30;;
1811;SDS011;904;47.814;11.134;2023-08-01T03:28:17;5.53;;;2.77;;
1811;SDS011;904;47.814;11.134;2023-08-01T03:30:51;5.43;;;2.80;;
1811;SDS011;904;47.814;11.134;2023-08-01T03:33:19;5.23;;;3.03;;
1811;SDS011;904;47.814;11.134;2023-08-01T03:35:46;4.47;;;3.20;;
1811;SDS011;904;47.814;11.134;2023-08-01T03:38:13;4.93;;;3.30;;
1811;SDS011;904;47.814;11.134;2023-08-01T03:40:42;5.17;;;3.37;;
1811;SDS011;904;47.814;11.134;2023-08-01T03:43:10;4.80;;;2.83;;
1811;SDS011;904;47.814;11.134;2023-08-01T03:45:37;3.80;;;2.23;;
1811;SDS011;904;47.814;11.134;2023-08-01T03:48:06;4.13;;;2.97;;
1811;SDS011;904;47.814;11.134;2023-08-01T03:50:39;4.40;;;2.73;;
1811;SDS011;904;47.814;11.134;2023-08-01T03:53:05;3.50;;;2.23;;
1811;SDS011;904;47.814;11.134;2023-08-01T03:55:37;5.30;;;3.17;;
1811;SDS011;904;47.814;11.134;2023-08-01T03:58:08;4.40;;;2.90;;
1811;SDS011;904;47.814;11.134;2023-08-01T04:00:36;4.20;;;3.00;;
1811;SDS011;904;47.814;11.134;2023-08-01T04:03:03;5.83;;;2.60;;
1811;SDS011;904;47.814;11.134;2023-08-01T04:05:35;4.80;;;3.10;;
1811;SDS011;904;47.814;11.134;2023-08-01T04:08:02;6.57;;;2.80;;
1811;SDS011;904;47.814;11.134;2023-08-01T04:10:30;7.57;;;2.83;;
1811;SDS011;904;47.814;11.134;2023-08-01T04:12:59;4.03;;;2.80;;
1811;SDS011;904;47.814;11.134;2023-08-01T04:15:28;5.33;;;3.40;;
1811;SDS011;904;47.814;11.134;2023-08-01T04:17:57;3.93;;;2.63;;
1811;SDS011;904;47.814;11.134;2023-08-01T04:20:24;6.30;;;3.60;;
1811;SDS011;904;47.814;11.134;2023-08-01T04:22:53;4.00;;;2.40;;
1811;SDS011;904;47.814;11.134;2023-08-01T04:25:21;5.00;;;3.40;;
1811;SDS011;904;47.814;11.134;2023-08-01T04:27:58;3.83;;;2.60;;
1811;SDS011;904;47.814;11.134;2023-08-01T04:30:25;4.97;;;3.20;;
1811;SDS011;904;47.814;11.134;2023-08-01T04:32:53;4.37;;;3.07;;
1811;SDS011;904;47.814;11.134;2023-08-01T04:35:20;6.53;;;3.17;;
1811;SDS011;904;47.814;11.134;2023-08-01T04:37:49;6.67;;;3.00;;
1811;SDS011;904;47.814;11.134;2023-08-01T04:40:17;5.30;;;2.87;;
1811;SDS011;904;47.814;11.134;2023-08-01T04:42:46;4.60;;;2.87;;
1811;SDS011;904;47.814;11.134;2023-08-01T04:45:13;5.60;;;3.40;;
1811;SDS011;904;47.814;11.134;2023-08-01T04:47:42;5.63;;;3.27;;
1811;SDS011;904;47.814;11.134;2023-08-01T04:50:10;5.53;;;3.30;;
1811;SDS011;904;47.814;11.134;2023-08-01T04:52:37;6.43;;;2.67;;
1811;SDS011;904;47.814;11.134;2023-08-01T04:55:05;5.90;;;3.10;;
1811;SDS011;904;47.814;11.134;2023-08-01T04:57:33;6.43;;;3.00;;
1811;SDS011;904;47.814;11.134;2023-08-01T05:00:00;9.67;;;3.70;;
1811;SDS011;904;47.814;11.134;2023-08-01T05:02:31;4.87;;;3.20;;
1811;SDS011;904;47.814;11.134;2023-08-01T05:04:58;7.83;;;3.20;;
1811;SDS011;904;47.814;11.134;2023-08-01T05:07:27;5.20;;;3.07;;
1811;SDS011;904;47.814;11.134;2023-08-01T05:09:54;8.13;;;2.97;;
1811;SDS011;904;47.814;11.134;2023-08-01T05:12:21;5.50;;;3.20;;
1811;SDS011;904;47.814;11.134;2023-08-01T05:14:48;5.93;;;3.37;;
1811;SDS011;904;47.814;11.134;2023-08-01T05:17:15;11.90;;;3.90;;
1811;SDS011;904;47.814;11.134;2023-08-01T05:19:42;6.27;;;3.03;;
1811;SDS011;904;47.814;11.134;2023-08-01T05:22:09;4.50;;;2.90;;
1811;SDS011;904;47.814;11.134;2023-08-01T05:24:38;7.60;;;3.23;;
1811;SDS011;904;47.814;11.134;2023-08-01T05:27:05;6.87;;;3.00;;
1811;SDS011;904;47.814;11.134;2023-08-01T05:29:32;4.73;;;3.50;;
1811;SDS011;904;47.814;11.134;2023-08-01T05:31:59;4.40;;;3.03;;
1811;SDS011;904;47.814;11.134;2023-08-01T05:34:26;6.63;;;3.27;;
1811;SDS011;904;47.814;11.134;2023-08-01T05:36:53;6.10;;;3.60;;
1811;SDS011;904;47.814;11.134;2023-08-01T05:39:20;5.10;;;3.57;;
1811;SDS011;904;47.814;11.134;2023-08-01T05:41:48;4.80;;;3.17;;
1811;SDS011;904;47.814;11.134;2023-08-01T05:44:16;7.50;;;4.07;;
1811;SDS011;904;47.814;11.134;2023-08-01T05:46:43;7.50;;;3.63;;
1811;SDS011;904;47.814;11.134;2023-08-01T05:49:10;5.53;;;3.30;;
1811;SDS011;904;47.814;11.134;2023-08-01T05:51:37;3.90;;;2.67;;
1811;SDS011;904;47.814;11.134;2023-08-01T05:54:05;6.37;;;2.97;;
1811;SDS011;904;47.814;11.134;2023-08-01T05:56:37;8.10;;;4.40;;
1811;SDS011;904;47.814;11.134;2023-08-01T05:59:06;5.30;;;3.30;;
1811;SDS011;904;47.814;11.134;2023-08-01T06:01:33;5.00;;;3.60;;
1811;SDS011;904;47.814;11.134;2023-08-01T06:04:04;5.90;;;3.53;;
1811;SDS011;904;47.814;11.134;2023-08-01T06:06:31;4.30;;;2.63;;
1811;SDS011;904;47.814;11.134;2023-08-01T06:09:03;5.17;;;3.80;;
1811;SDS011;904;47.814;11.134;2023-08-01T06:11:32;8.03;;;3.23;;
1811;SDS011;904;47.814;11.134;2023-08-01T06:14:00;5.00;;;3.17;;
1811;SDS011;904;47.814;11.134;2023-08-01T06:16:29;7.60;;;4.17;;
1811;SDS011;904;47.814;11.134;2023-08-01T06:18:56;6.73;;;3.37;;
1811;SDS011;904;47.814;11.134;2023-08-01T06:21:27;4.83;;;3.53;;
1811;SDS011;904;47.814;11.134;2023-08-01T06:23:56;4.90;;;3.80;;
1811;SDS011;904;47.814;11.134;2023-08-01T06:26:24;5.87;;;4.17;;
1811;SDS011;904;47.814;11.134;2023-08-01T06:28:55;6.87;;;3.70;;
1811;SDS011;904;47.814;11.134;2023-08-01T06:31:26;8.10;;;4.53;;
1811;SDS011;904;47.814;11.134;2023-08-01T06:34:01;5.13;;;4.60;;
1811;SDS011;904;47.814;11.134;2023-08-01T06:36:29;6.87;;;3.47;;
1811;SDS011;904;47.814;11.134;2023-08-01T06:39:03;6.07;;;3.93;;
1811;SDS011;904;47.814;11.134;2023-08-01T06:41:30;8.07;;;4.30;;
1811;SDS011;904;47.814;11.134;2023-08-01T06:44:03;7.77;;;4.10;;
1811;SDS011;904;47.814;11.134;2023-08-01T06:46:30;7.67;;;4.00;;
1811;SDS011;904;47.814;11.134;2023-08-01T06:48:58;6.73;;;4.17;;
1811;SDS011;904;47.814;11.134;2023-08-01T06:51:31;12.53;;;4.17;;
1811;SDS011;904;47.814;11.134;2023-08-01T06:54:00;6.10;;;4.50;;
1811;SDS011;904;47.814;11.134;2023-08-01T06:56:28;6.53;;;3.80;;
1811;SDS011;904;47.814;11.134;2023-08-01T06:59:05;6.77;;;3.83;;
1811;SDS011;904;47.814;11.134;2023-08-01T07:01:37;5.13;;;3.77;;
1811;SDS011;904;47.814;11.134;2023-08-01T07:04:07;4.80;;;3.50;;
1811;SDS011;904;47.814;11.134;2023-08-01T07:06:39;5.73;;;3.83;;
1811;SDS011;904;47.814;11.134;2023-08-01T07:09:06;6.90;;;4.70;;
1811;SDS011;904;47.814;11.134;2023-08-01T07:11:33;6.40;;;4.17;;
1811;SDS011;904;47.814;11.134;2023-08-01T07:14:00;5.33;;;3.90;;
1811;SDS011;904;47.814;11.134;2023-08-01T07:16:27;4.60;;;3.40;;
1811;SDS011;904;47.814;11.134;2023-08-01T07:19:03;7.23;;;3.57;;
1811;SDS011;904;47.814;11.134;2023-08-01T07:21:32;5.17;;;3.80;;
1811;SDS011;904;47.814;11.134;2023-08-01T07:23:58;4.53;;;3.03;;
1811;SDS011;904;47.814;11.134;2023-08-01T07:26:26;6.20;;;4.10;;
1811;SDS011;904;47.814;11.134;2023-08-01T07:28:54;4.90;;;3.57;;
1811;SDS011;904;47.814;11.134;2023-08-01T07:31:21;5.73;;;4.17;;
1811;SDS011;904;47.814;11.134;2023-08-01T07:33:48;6.27;;;3.60;;
1811;SDS011;904;47.814;11.134;2023-08-01T07:36:15;6.97;;;4.03;;
1811;SDS011;904;47.814;11.134;2023-08-01T07:38:43;6.30;;;3.60;;
1811;SDS011;904;47.814;11.134;2023-08-01T07:41:10;5.27;;;3.70;;
1811;SDS011;904;47.814;11.134;2023-08-01T07:43:37;6.23;;;3.43;;
1811;SDS011;904;47.814;11.134;2023-08-01T07:46:09;5.70;;;4.17;;
1811;SDS011;904;47.814;11.134;2023-08-01T07:48:36;5.63;;;3.43;;
1811;SDS011;904;47.814;11.134;2023-08-01T07:51:04;6.37;;;3.40;;
1811;SDS011;904;47.814;11.134;2023-08-01T07:53:32;8.30;;;4.43;;
1811;SDS011;904;47.814;11.134;2023-08-01T07:56:01;5.40;;;3.77;;
1811;SDS011;904;47.814;11.134;2023-08-01T07:58:33;6.67;;;3.53;;
1811;SDS011;904;47.814;11.134;2023-08-01T08:01:04;6.20;;;3.60;;
1811;SDS011;904;47.814;11.134;2023-08-01T08:03:37;7.50;;;3.43;;
1811;SDS011;904;47.814;11.134;2023-08-01T08:06:04;4.93;;;3.70;;
1811;SDS011;904;47.814;11.134;2023-08-01T08:08:32;9.37;;;3.63;;
1811;SDS011;904;47.814;11.134;2023-08-01T08:11:03;5.40;;;3.40;;
1811;SDS011;904;47.814;11.134;2023-08-01T08:13:30;5.00;;;3.43;;
1811;SDS011;904;47.814;11.134;2023-08-01T08:15:58;4.20;;;3.07;;
1811;SDS011;904;47.814;11.134;2023-08-01T08:18:25;7.40;;;4.10;;
1811;SDS011;904;47.814;11.134;2023-08-01T08:20:54;4.60;;;3.03;;
1811;SDS011;904;47.814;11.134;2023-08-01T08:23:21;6.80;;;3.07;;
1811;SDS011;904;47.814;11.134;2023-08-01T08:25:48;7.23;;;2.80;;
1811;SDS011;904;47.814;11.134;2023-08-01T08:28:27;7.20;;;3.13;;
1811;SDS011;904;47.814;11.134;2023-08-01T08:30:55;4.70;;;3.53;;
1811;SDS011;904;47.814;11.134;2023-08-01T08:33:28;7.37;;;3.93;;
1811;SDS011;904;47.814;11.134;2023-08-01T08:35:55;5.50;;;3.10;;
1811;SDS011;904;47.814;11.134;2023-08-01T08:38:22;6.97;;;3.60;;
1811;SDS011;904;47.814;11.134;2023-08-01T08:41:03;6.03;;;3.60;;
1811;SDS011;904;47.814;11.134;2023-08-01T08:43:36;7.50;;;3.03;;
1811;SDS011;904;47.814;11.134;2023-08-01T08:46:04;5.40;;;3.80;;
1811;SDS011;904;47.814;11.134;2023-08-01T08:48:33;5.87;;;3.70;;
1811;SDS011;904;47.814;11.134;2023-08-01T08:51:07;5.47;;;3.70;;
1811;SDS011;904;47.814;11.134;2023-08-01T08:53:35;7.67;;;3.90;;
1811;SDS011;904;47.814;11.134;2023-08-01T08:56:02;6.27;;;3.43;;
1811;SDS011;904;47.814;11.134;2023-08-01T08:58:33;7.10;;;3.27;;
1811;SDS011;904;47.814;11.134;2023-08-01T09:01:04;5.47;;;3.93;;
1811;SDS011;904;47.814;11.134;2023-08-01T09:03:33;6.20;;;3.80;;
1811;SDS011;904;47.814;11.134;2023-08-01T09:06:02;5.50;;;3.60;;
1811;SDS011;904;47.814;11.134;2023-08-01T09:08:31;5.03;;;3.40;;
1811;SDS011;904;47.814;11.134;2023-08-01T09:11:02;5.37;;;3.63;;
1811;SDS011;904;47.814;11.134;2023-08-01T09:13:30;6.40;;;3.80;;
1811;SDS011;904;47.814;11.134;2023-08-01T09:15:59;5.23;;;3.50;;
1811;SDS011;904;47.814;11.134;2023-08-01T09:18:28;5.80;;;3.47;;
1811;SDS011;904;47.814;11.134;2023-08-01T09:21:00;5.30;;;3.53;;
1811;SDS011;904;47.814;11.134;2023-08-01T09:23:33;5.47;;;4.00;;
1811;SDS011;904;47.814;11.134;2023-08-01T09:26:00;7.03;;;4.17;;
1811;SDS011;904;47.814;11.134;2023-08-01T09:28:37;8.10;;;4.83;;
1811;SDS011;904;47.814;11.134;2023-08-01T09:31:09;5.20;;;3.83;;
1811;SDS011;904;47.814;11.134;2023-08-01T09:33:37;5.17;;;3.60;;
1811;SDS011;904;47.814;11.134;2023-08-01T09:36:06;9.63;;;4.23;;
1811;SDS011;904;47.814;11.134;2023-08-01T09:38:33;6.50;;;3.80;;
1811;SDS011;904;47.814;11.134;2023-08-01T09:41:02;6.30;;;3.83;;
1811;SDS011;904;47.814;11.134;2023-08-01T09:43:35;7.63;;;4.30;;
1811;SDS011;904;47.814;11.134;2023-08-01T09:46:03;5.93;;;3.50;;
1811;SDS011;904;47.814;11.134;2023-08-01T09:48:42;6.90;;;4.40;;
1811;SDS011;904;47.814;11.134;2023-08-01T09:51:09;8.20;;;3.93;;
1811;SDS011;904;47.814;11.134;2023-08-01T09:53:47;7.20;;;3.90;;
1811;SDS011;904;47.814;11.134;2023-08-01T09:56:18;7.53;;;3.80;;
1811;SDS011;904;47.814;11.134;2023-08-01T09:58:47;7.27;;;4.20;;
1811;SDS011;904;47.814;11.134;2023-08-01T10:01:17;6.87;;;3.70;;
1811;SDS011;904;47.814;11.134;2023-08-01T10:03:46;5.70;;;3.63;;
1811;SDS011;904;47.814;11.134;2023-08-01T10:06:16;5.43;;;3.20;;
1811;SDS011;904;47.814;11.134;2023-08-01T10:08:45;9.13;;;4.03;;
1811;SDS011;904;47.814;11.134;2023-08-01T10:11:18;6.47;;;3.30;;
1811;SDS011;904;47.814;11.134;2023-08-01T10:13:53;6.10;;;3.97;;
1811;SDS011;904;47.814;11.134;2023-08-01T10:16:22;5.63;;;3.43;;
1811;SDS011;904;47.814;11.134;2023-08-01T10:18:51;5.67;;;3.57;;
1811;SDS011;904;47.814;11.134;2023-08-01T10:21:19;7.90;;;4.43;;
1811;SDS011;904;47.814;11.134;2023-08-01T10:23:47;9.27;;;3.87;;
1811;SDS011;904;47.814;11.134;2023-08-01T10:26:19;13.50;;;4.00;;
1811;SDS011;904;47.814;11.134;2023-08-01T10:28:49;6.30;;;3.50;;
1811;SDS011;904;47.814;11.134;2023-08-01T10:31:20;5.97;;;3.93;;
1811;SDS011;904;47.814;11.134;2023-08-01T10:34:03;5.20;;;2.60;;
1811;SDS011;904;47.814;11.134;2023-08-01T10:36:31;7.27;;;3.90;;
1811;SDS011;904;47.814;11.134;2023-08-01T10:38:59;6.00;;;3.33;;
1811;SDS011;904;47.814;11.134;2023-08-01T10:41:32;5.00;;;2.87;;
1811;SDS011;904;47.814;11.134;2023-08-01T10:44:07;5.57;;;3.57;;
1811;SDS011;904;47.814;11.134;2023-08-01T10:46:49;5.40;;;3.50;;
1811;SDS011;904;47.814;11.134;2023-08-01T10:49:17;5.60;;;3.20;;
1811;SDS011;904;47.814;11.134;2023-08-01T10:51:46;6.43;;;3.40;;
1811;SDS011;904;47.814;11.134;2023-08-01T10:54:18;5.27;;;3.40;;
1811;SDS011;904;47.814;11.134;2023-08-01T10:56:52;4.37;;;3.00;;
1811;SDS011;904;47.814;11.134;2023-08-01T10:59:35;5.67;;;3.90;;
1811;SDS011;904;47.814;11.134;2023-08-01T11:02:08;5.60;;;3.77;;
1811;SDS011;904;47.814;11.134;2023-08-01T11:04:37;5.70;;;3.90;;
1811;SDS011;904;47.814;11.134;2023-08-01T11:07:04;6.17;;;3.77;;
1811;SDS011;904;47.814;11.134;2023-08-01T11:09:45;5.33;;;3.07;;
1811;SDS011;904;47.814;11.134;2023-08-01T11:12:14;4.80;;;3.23;;
1811;SDS011;904;47.814;11.134;2023-08-01T11:14:43;4.80;;;2.87;;
1811;SDS011;904;47.814;11.134;2023-08-01T11:17:11;6.93;;;3.60;;
1811;SDS011;904;47.814;11.134;2023-08-01T11:19:41;4.63;;;2.80;;
1811;SDS011;904;47.814;11.134;2023-08-01T11:22:09;5.60;;;3.00;;
1811;SDS011;904;47.814;11.134;2023-08-01T11:24:36;5.60;;;3.43;;
1811;SDS011;904;47.814;11.134;2023-08-01T11:27:08;4.80;;;3.03;;
1811;SDS011;904;47.814;11.134;2023-08-01T11:29:41;6.90;;;2.70;;
1811;SDS011;904;47.814;11.134;2023-08-01T11:32:11;4.80;;;2.90;;
1811;SDS011;904;47.814;11.134;2023-08-01T11:34:39;3.80;;;2.40;;
1811;SDS011;904;47.814;11.134;2023-08-01T11:37:08;4.43;;;2.50;;
1811;SDS011;904;47.814;11.134;2023-08-01T11:39:35;4.30;;;2.77;;
1811;SDS011;904;47.814;11.134;2023-08-01T11:42:03;4.00;;;2.60;;
1811;SDS011;904;47.814;11.134;2023-08-01T11:44:30;4.23;;;2.60;;
1811;SDS011;904;47.814;11.134;2023-08-01T11:46:57;5.07;;;2.13;;
1811;SDS011;904;47.814;11.134;2023-08-01T11:49:26;3.37;;;2.33;;
1811;SDS011;904;47.814;11.134;2023-08-01T11:51:53;4.20;;;2.27;;
1811;SDS011;904;47.814;11.134;2023-08-01T11:54:20;3.70;;;2.37;;
1811;SDS011;904;47.814;11.134;2023-08-01T11:56:47;3.80;;;2.50;;
1811;SDS011;904;47.814;11.134;2023-08-01T11:59:14;4.23;;;3.30;;
1811;SDS011;904;47.814;11.134;2023-08-01T12:01:42;4.20;;;2.33;;
1811;SDS011;904;47.814;11.134;2023-08-01T12:04:10;4.50;;;2.13;;
1811;SDS011;904;47.814;11.134;2023-08-01T12:06:39;3.93;;;2.03;;
1811;SDS011;904;47.814;11.134;2023-08-01T12:09:07;6.10;;;3.23;;
1811;SDS011;904;47.814;11.134;2023-08-01T12:11:37;5.07;;;3.57;;
1811;SDS011;904;47.814;11.134;2023-08-01T12:14:06;9.07;;;3.10;;
1811;SDS011;904;47.814;11.134;2023-08-01T12:16:34;4.20;;;2.23;;
1811;SDS011;904;47.814;11.134;2023-08-01T12:19:02;4.33;;;2.10;;
1811;SDS011;904;47.814;11.134;2023-08-01T12:21:30;4.40;;;2.23;;
1811;SDS011;904;47.814;11.134;2023-08-01T12:23:59;4.10;;;2.00;;
1811;SDS011;904;47.814;11.134;2023-08-01T12:26:26;4.70;;;2.40;;
1811;SDS011;904;47.814;11.134;2023-08-01T12:28:53;4.00;;;2.30;;
1811;SDS011;904;47.814;11.134;2023-08-01T12:31:21;3.63;;;2.30;;
1811;SDS011;904;47.814;11.134;2023-08-01T12:33:48;6.40;;;2.40;;
1811;SDS011;904;47.814;11.134;2023-08-01T12:36:17;4.53;;;2.40;;
1811;SDS011;904;47.814;11.134;2023-08-01T12:38:44;3.90;;;2.30;;
1811;SDS011;904;47.814;11.134;2023-08-01T12:41:12;3.00;;;2.07;;
1811;SDS011;904;47.814;11.134;2023-08-01T12:43:39;5.67;;;2.53;;
1811;SDS011;904;47.814;11.134;2023-08-01T12:46:07;4.93;;;2.70;;
1811;SDS011;904;47.814;11.134;2023-08-01T12:48:34;4.93;;;1.90;;
1811;SDS011;904;47.814;11.134;2023-08-01T12:51:02;3.43;;;2.10;;
1811;SDS011;904;47.814;11.134;2023-08-01T12:53:29;4.93;;;2.50;;
1811;SDS011;904;47.814;11.134;2023-08-01T12:55:56;5.43;;;2.30;;
1811;SDS011;904;47.814;11.134;2023-08-01T12:58:24;3.60;;;2.07;;
1811;SDS011;904;47.814;11.134;2023-08-01T13:00:51;3.30;;;1.70;;
1811;SDS011;904;47.814;11.134;2023-08-01T13:03:18;6.00;;;2.33;;
1811;SDS011;904;47.814;11.134;2023-08-01T13:05:45;3.13;;;1.43;;
1811;SDS011;904;47.814;11.134;2023-08-01T13:08:12;3.80;;;2.33;;
1811;SDS011;904;47.814;11.134;2023-08-01T13:10:39;2.53;;;1.40;;
1811;SDS011;904;47.814;11.134;2023-08-01T13:13:06;3.53;;;2.23;;
1811;SDS011;904;47.814;11.134;2023-08-01T13:15:34;3.37;;;1.40;;
1811;SDS011;904;47.814;11.134;2023-08-01T13:18:01;2.50;;;1.23;;
1811;SDS011;904;47.814;11.134;2023-08-01T13:20:28;2.90;;;1.40;;
1811;SDS011;904;47.814;11.134;2023-08-01T13:22:55;3.13;;;1.60;;
1811;SDS011;904;47.814;11.134;2023-08-01T13:25:22;3.40;;;1.70;;
1811;SDS011;904;47.814;11.134;2023-08-01T13:27:49;2.90;;;1.70;;
1811;SDS011;904;47.814;11.134;2023-08-01T13:30:16;2.90;;;1.47;;
1811;SDS011;904;47.814;11.134;2023-08-01T13:32:45;2.50;;;1.40;;
1811;SDS011;904;47.814;11.134;2023-08-01T13:35:12;2.70;;;1.27;;
1811;SDS011;904;47.814;11.134;2023-08-01T13:37:39;5.33;;;1.30;;
1811;SDS011;904;47.814;11.134;2023-08-01T13:40:07;3.63;;;1.70;;
1811;SDS011;904;47.814;11.134;2023-08-01T13:42:36;2.90;;;1.40;;
1811;SDS011;904;47.814;11.134;2023-08-01T13:45:04;2.73;;;1.43;;
1811;SDS011;904;47.814;11.134;2023-08-01T13:47:31;2.80;;;1.83;;
1811;SDS011;904;47.814;11.134;2023-08-01T13:50:00;3.83;;;1.37;;
1811;SDS011;904;47.814;11.134;2023-08-01T13:52:27;2.70;;;1.50;;
1811;SDS011;904;47.814;11.134;2023-08-01T13:54:54;2.80;;;1.43;;
1811;SDS011;904;47.814;11.134;2023-08-01T13:57:27;2.73;;;1.40;;
1811;SDS011;904;47.814;11.134;2023-08-01T13:59:54;2.80;;;1.23;;
1811;SDS011;904;47.814;11.134;2023-08-01T14:02:21;2.50;;;1.00;;
1811;SDS011;904;47.814;11.134;2023-08-01T14:04:50;3.50;;;1.50;;
1811;SDS011;904;47.814;11.134;2023-08-01T14:07:19;3.27;;;1.70;;
1811;SDS011;904;47.814;11.134;2023-08-01T14:09:46;2.93;;;1.30;;
1811;SDS011;904;47.814;11.134;2023-08-01T14:12:13;3.30;;;1.27;;
1811;SDS011;904;47.814;11.134;2023-08-01T14:14:42;3.60;;;1.50;;
1811;SDS011;904;47.814;11.134;2023-08-01T14:17:09;4.30;;;1.40;;
1811;SDS011;904;47.814;11.134;2023-08-01T14:19:36;2.50;;;1.33;;
1811;SDS011;904;47.814;11.134;2023-08-01T14:22:03;3.40;;;1.60;;
1811;SDS011;904;47.814;11.134;2023-08-01T14:24:32;3.03;;;1.70;;
1811;SDS011;904;47.814;11.134;2023-08-01T14:26:59;11.33;;;1.83;;
1811;SDS011;904;47.814;11.134;2023-08-01T14:29:26;2.97;;;1.63;;
1811;SDS011;904;47.814;11.134;2023-08-01T14:31:52;3.10;;;1.30;;
1811;SDS011;904;47.814;11.134;2023-08-01T14:34:19;3.23;;;1.63;;
1811;SDS011;904;47.814;11.134;2023-08-01T14:36:46;3.10;;;1.50;;
1811;SDS011;904;47.814;11.134;2023-08-01T14:39:13;3.83;;;1.47;;
1811;SDS011;904;47.814;11.134;2023-08-01T14:41:42;4.33;;;1.93;;
1811;SDS011;904;47.814;11.134;2023-08-01T14:44:13;4.83;;;1.53;;
1811;SDS011;904;47.814;11.134;2023-08-01T14:46:39;3.80;;;2.00;;
1811;SDS011;904;47.814;11.134;2023-08-01T14:49:06;4.10;;;2.00;;
1811;SDS011;904;47.814;11.134;2023-08-01T14:51:33;3.33;;;1.70;;
1811;SDS011;904;47.814;11.134;2023-08-01T14:54:00;3.47;;;1.73;;
1811;SDS011;904;47.814;11.134;2023-08-01T14:56:27;4.23;;;1.97;;
1811;SDS011;904;47.814;11.134;2023-08-01T14:58:57;3.07;;;1.63;;
1811;SDS011;904;47.814;11.134;2023-08-01T15:01:24;3.77;;;1.90;;
1811;SDS011;904;47.814;11.134;2023-08-01T15:03:51;3.90;;;1.60;;
1811;SDS011;904;47.814;11.134;2023-08-01T15:06:18;4.27;;;1.57;;
1811;SDS011;904;47.814;11.134;2023-08-01T15:08:45;2.70;;;1.50;;
1811;SDS011;904;47.814;11.134;2023-08-01T15:11:11;2.80;;;1.30;;
1811;SDS011;904;47.814;11.134;2023-08-01T15:13:38;3.70;;;1.17;;
1811;SDS011;904;47.814;11.134;2023-08-01T15:16:10;3.03;;;1.40;;
1811;SDS011;904;47.814;11.134;2023-08-01T15:18:37;2.60;;;1.20;;
1811;SDS011;904;47.814;11.134;2023-08-01T15:21:04;2.67;;;1.20;;
1811;SDS011;904;47.814;11.134;2023-08-01T15:23:31;2.87;;;1.40;;